Time;durP1;ratioP1;P1;durP2;ratioP2;P2;SDS_P1;SDS_P2;PMS_P1;PMS_P2;Temp;Humidity;BMP_temperature;BMP_pressure;BME280_temperature;BME280_humidity;BME280_pressure;Samples;Min_cycle;Max_cycle;Signal;HPM_P1;HPM_P2
2021/01/29 00:01:34;;;;;;;2.77;2.67;;;;;;;5.27;100.00;96707.06;5002466;28;20205;-77
2021/01/29 00:04:02;;;;;;;2.83;2.73;;;;;;;5.14;100.00;96700.47;5002772;28;20618;-77
2021/01/29 00:06:29;;;;;;;2.93;2.80;;;;;;;5.23;100.00;96698.66;5005939;28;20205;-77
2021/01/29 00:08:56;;;;;;;3.10;2.70;;;;;;;5.23;100.00;96696.03;5006816;28;20216;-77
2021/01/29 00:11:24;;;;;;;5.03;3.30;;;;;;;5.26;100.00;96692.28;5001398;28;20224;-77
2021/01/29 00:13:51;;;;;;;4.17;3.43;;;;;;;5.16;100.00;96697.69;5005785;28;20241;-77
2021/01/29 00:16:18;;;;;;;6.30;3.73;;;;;;;5.17;100.00;96694.06;5003809;28;20254;-77
2021/01/29 00:18:45;;;;;;;5.17;3.70;;;;;;;5.47;100.00;96695.22;4999804;28;20648;-77
2021/01/29 00:21:13;;;;;;;4.23;3.90;;;;;;;5.44;100.00;96694.75;5005411;28;20220;-77
2021/01/29 00:23:40;;;;;;;8.23;4.30;;;;;;;5.31;100.00;96688.19;5001906;28;20736;-78
2021/01/29 00:26:07;;;;;;;4.87;4.00;;;;;;;5.20;100.00;96689.31;5009679;28;20620;-77
2021/01/29 00:28:34;;;;;;;3.97;3.67;;;;;;;5.34;100.00;96687.03;5003181;28;20228;-77
2021/01/29 00:31:02;;;;;;;4.37;3.97;;;;;;;5.26;100.00;96681.78;5015163;28;20387;-75
2021/01/29 00:33:29;;;;;;;4.30;3.90;;;;;;;5.20;100.00;96684.06;5007490;28;20228;-76
2021/01/29 00:35:56;;;;;;;4.87;4.47;;;;;;;5.27;100.00;96686.84;5015922;28;20231;-77
2021/01/29 00:38:24;;;;;;;4.07;3.67;;;;;;;5.15;100.00;96680.28;5008033;28;20208;-76
2021/01/29 00:40:51;;;;;;;4.23;3.83;;;;;;;5.22;100.00;96676.00;5015257;28;20708;-77
2021/01/29 00:43:18;;;;;;;4.30;4.00;;;;;;;5.33;100.00;96667.00;5013168;28;20220;-77
2021/01/29 00:45:46;;;;;;;4.20;3.80;;;;;;;5.05;100.00;96675.16;5001022;28;20205;-76
2021/01/29 00:48:13;;;;;;;4.70;4.40;;;;;;;5.00;100.00;96675.66;5010881;28;20208;-77
2021/01/29 00:50:40;;;;;;;4.20;3.90;;;;;;;4.93;100.00;96674.69;5011730;28;20221;-78
2021/01/29 00:53:08;;;;;;;3.83;3.53;;;;;;;5.10;100.00;96672.88;5011216;28;20220;-76
2021/01/29 00:55:36;;;;;;;4.60;4.20;;;;;;;5.08;100.00;96669.59;5007449;28;20201;-77
2021/01/29 00:58:04;;;;;;;4.00;3.70;;;;;;;4.83;100.00;96663.47;5004425;28;20678;-77
2021/01/29 01:00:31;;;;;;;3.73;3.53;;;;;;;4.73;100.00;96663.59;5009471;28;20209;-76
2021/01/29 01:02:58;;;;;;;3.90;3.60;;;;;;;4.75;100.00;96654.59;5008976;28;20521;-77
2021/01/29 01:05:26;;;;;;;3.97;3.67;;;;;;;4.57;100.00;96661.78;5011439;28;20205;-78
2021/01/29 01:07:53;;;;;;;3.97;3.70;;;;;;;4.50;100.00;96653.72;5011313;28;20728;-77
2021/01/29 01:10:21;;;;;;;4.47;4.10;;;;;;;4.54;100.00;96654.19;5011716;28;20235;-77
2021/01/29 01:12:50;;;;;;;4.43;4.03;;;;;;;4.38;100.00;96642.66;5005291;28;20219;-76
2021/01/29 01:15:20;;;;;;;3.50;3.30;;;;;;;4.29;100.00;96638.38;5012056;28;20562;-76
2021/01/29 01:17:47;;;;;;;4.30;3.40;;;;;;;4.28;100.00;96634.13;5010057;28;20208;-76
2021/01/29 01:20:20;;;;;;;4.23;3.77;;;;;;;4.30;100.00;96638.22;5005464;28;20213;-76
2021/01/29 01:22:47;;;;;;;3.80;3.60;;;;;;;4.27;100.00;96635.09;5013270;28;20192;-76
2021/01/29 01:25:14;;;;;;;4.43;3.80;;;;;;;4.52;100.00;96622.88;5010500;28;20594;-76
2021/01/29 01:27:42;;;;;;;3.33;3.13;;;;;;;4.40;100.00;96626.78;5011584;28;20826;-76
2021/01/29 01:30:13;;;;;;;3.50;3.30;;;;;;;4.41;100.00;96623.19;5013631;28;20209;-76
2021/01/29 01:32:40;;;;;;;4.70;3.63;;;;;;;4.51;100.00;96620.41;5015441;28;20204;-76
2021/01/29 01:35:09;;;;;;;4.13;3.50;;;;;;;4.47;100.00;96620.72;5012972;28;20235;-76
2021/01/29 01:37:36;;;;;;;4.30;4.03;;;;;;;4.59;100.00;96625.69;5012240;28;20199;-76
2021/01/29 01:40:04;;;;;;;4.43;4.03;;;;;;;4.42;100.00;96609.91;5009502;28;20672;-76
2021/01/29 01:42:31;;;;;;;4.00;3.57;;;;;;;4.44;100.00;96599.25;5009260;28;20205;-78
2021/01/29 01:44:58;;;;;;;4.37;3.97;;;;;;;4.41;100.00;96589.88;5010810;28;20221;-76
2021/01/29 01:47:33;;;;;;;4.03;3.63;;;;;;;4.46;100.00;96582.34;5012207;28;20204;-76
2021/01/29 01:50:05;;;;;;;4.13;3.67;;;;;;;4.54;100.00;96583.34;5008628;28;20211;-76
2021/01/29 01:52:35;;;;;;;3.83;2.77;;;;;;;4.78;100.00;96572.09;5001692;28;20201;-76
2021/01/29 01:55:06;;;;;;;2.93;2.73;;;;;;;4.90;100.00;96572.59;5004812;28;20225;-76
2021/01/29 01:57:34;;;;;;;3.73;2.37;;;;;;;5.30;100.00;96573.59;5011461;28;20637;-75
2021/01/29 02:00:05;;;;;;;2.80;2.60;;;;;;;5.47;100.00;96566.47;5009841;28;20208;-76
2021/01/29 02:02:36;;;;;;;5.30;4.87;;;;;;;5.49;100.00;96568.97;5009653;28;20211;-76
2021/01/29 02:05:06;;;;;;;3.03;2.73;;;;;;;5.58;100.00;96564.50;5011155;28;20234;-75
2021/01/29 02:07:37;;;;;;;3.13;2.70;;;;;;;5.58;100.00;96559.25;5006892;28;20208;-76
2021/01/29 02:10:06;;;;;;;2.87;2.53;;;;;;;5.57;100.00;96549.75;5008123;28;20208;-76
2021/01/29 02:12:33;;;;;;;2.97;2.73;;;;;;;5.61;100.00;96551.84;5004068;28;20710;-76
2021/01/29 02:15:00;;;;;;;3.17;2.60;;;;;;;5.59;100.00;96547.75;5009863;28;20231;-76
2021/01/29 02:17:39;;;;;;;2.90;2.10;;;;;;;5.54;100.00;96539.56;5010076;28;20219;-75
2021/01/29 02:20:33;;;;;;;2.30;2.20;;;;;;;5.51;100.00;96538.06;5007423;28;20288;-76
2021/01/29 02:23:17;;;;;;;2.47;2.30;;;;;;;5.44;100.00;96535.28;5003759;28;20208;-76
2021/01/29 02:26:24;;;;;;;3.03;2.47;;;;;;;5.40;100.00;96527.94;5013993;28;20213;-76
2021/01/29 02:29:08;;;;;;;2.20;2.10;;;;;;;5.45;100.00;96529.03;5009080;28;20660;-76
2021/01/29 02:31:48;;;;;;;2.20;2.10;;;;;;;5.42;100.00;96518.88;5007892;28;20235;-76
2021/01/29 02:34:51;;;;;;;2.93;1.90;;;;;;;5.55;100.00;96512.28;5008462;28;20273;-76
2021/01/29 02:37:59;;;;;;;2.27;1.97;;;;;;;5.53;100.00;96517.72;5006023;28;20615;-75
2021/01/29 02:40:30;;;;;;;2.97;2.67;;;;;;;5.54;100.00;96515.91;5013740;28;20211;-76
2021/01/29 02:43:04;;;;;;;2.57;2.47;;;;;;;5.59;100.00;96518.84;5003551;28;20216;-75
2021/01/29 02:45:35;;;;;;;3.10;2.90;;;;;;;5.72;100.00;96520.94;5006418;28;20283;-76
2021/01/29 02:48:14;;;;;;;2.67;2.53;;;;;;;5.71;100.00;96517.50;5006397;28;20292;-75
2021/01/29 02:50:48;;;;;;;3.13;2.93;;;;;;;5.72;100.00;96513.88;5012056;28;20224;-76
2021/01/29 02:53:25;;;;;;;2.80;2.60;;;;;;;5.70;100.00;96500.06;5009690;28;20655;-76
2021/01/29 02:56:04;;;;;;;2.60;2.40;;;;;;;5.70;100.00;96502.72;5008356;28;20213;-76
2021/01/29 02:58:35;;;;;;;4.30;3.00;;;;;;;5.69;100.00;96487.94;5004877;28;20699;-76
2021/01/29 03:01:08;;;;;;;3.00;2.80;;;;;;;5.74;100.00;96469.84;5003730;28;20197;-75
2021/01/29 03:03:40;;;;;;;2.70;2.60;;;;;;;5.73;100.00;96470.81;5009825;28;20607;-75
2021/01/29 03:06:13;;;;;;;2.90;2.80;;;;;;;5.73;100.00;96468.19;5004461;28;20208;-76
2021/01/29 03:08:43;;;;;;;3.03;2.67;;;;;;;5.73;100.00;96470.81;5006873;28;20700;-76
2021/01/29 03:11:16;;;;;;;2.63;2.53;;;;;;;5.76;100.00;96464.41;5011681;28;20221;-76
2021/01/29 03:13:45;;;;;;;2.37;2.27;;;;;;;5.73;100.00;96459.50;5006574;28;20232;-75
2021/01/29 03:16:17;;;;;;;2.90;2.70;;;;;;;5.84;100.00;96453.03;5009495;28;20208;-76
2021/01/29 03:18:50;;;;;;;2.83;2.73;;;;;;;5.87;100.00;96447.41;5013956;28;20519;-76
2021/01/29 03:21:22;;;;;;;2.70;2.60;;;;;;;5.78;100.00;96444.84;5008194;28;20608;-76
2021/01/29 03:23:52;;;;;;;2.90;2.70;;;;;;;5.80;100.00;96439.41;5009223;28;20243;-75
2021/01/29 03:26:22;;;;;;;8.67;3.37;;;;;;;5.87;100.00;96434.28;5010051;28;20196;-76
2021/01/29 03:28:51;;;;;;;2.80;2.60;;;;;;;5.79;100.00;96435.97;5010061;28;20869;-75
2021/01/29 03:31:19;;;;;;;2.60;2.50;;;;;;;5.93;100.00;96430.97;5008877;28;20231;-78
2021/01/29 03:33:48;;;;;;;2.73;2.60;;;;;;;5.95;100.00;96421.09;5012062;28;20248;-76
2021/01/29 03:36:18;;;;;;;2.87;2.67;;;;;;;6.02;100.00;96410.72;5006286;28;20284;-76
2021/01/29 03:38:48;;;;;;;3.30;3.00;;;;;;;5.96;100.00;96414.03;5015306;28;20205;-77
2021/01/29 03:41:20;;;;;;;3.53;3.03;;;;;;;5.98;100.00;96410.25;5008973;28;20208;-75
2021/01/29 03:43:55;;;;;;;3.13;2.90;;;;;;;6.06;100.00;96404.94;5010118;28;20244;-76
2021/01/29 03:46:32;;;;;;;2.80;2.70;;;;;;;5.98;100.00;96407.59;5009053;28;20208;-75
2021/01/29 03:49:07;;;;;;;2.77;2.57;;;;;;;6.04;100.00;96390.31;5008944;28;20284;-76
2021/01/29 03:51:42;;;;;;;3.00;2.83;;;;;;;6.10;100.00;96388.81;5009657;28;20212;-76
2021/01/29 03:54:16;;;;;;;2.93;2.80;;;;;;;6.12;100.00;96381.56;5009557;28;20612;-76
2021/01/29 03:56:53;;;;;;;3.17;3.07;;;;;;;6.08;100.00;96386.38;5012766;28;20208;-75
2021/01/29 03:59:25;;;;;;;4.17;3.17;;;;;;;6.05;100.00;96387.53;5007600;28;20204;-75
2021/01/29 04:01:57;;;;;;;3.00;2.90;;;;;;;6.06;100.00;96383.91;5007554;28;20215;-75
2021/01/29 04:04:27;;;;;;;3.57;3.27;;;;;;;6.07;100.00;96368.97;5017129;28;20250;-75
2021/01/29 04:07:08;;;;;;;3.80;2.80;;;;;;;6.18;100.00;96370.34;5015811;28;20200;-75
2021/01/29 04:09:44;;;;;;;5.33;2.77;;;;;;;6.08;100.00;96360.06;5008829;28;20483;-75
2021/01/29 04:12:13;;;;;;;4.93;3.07;;;;;;;6.14;100.00;96358.53;5007894;28;20220;-75
2021/01/29 04:14:50;;;;;;;3.03;2.90;;;;;;;6.05;100.00;96349.88;5015547;28;20239;-76
2021/01/29 04:17:22;;;;;;;3.63;3.07;;;;;;;6.11;100.00;96348.38;5012865;28;20220;-76
2021/01/29 04:19:54;;;;;;;3.03;2.83;;;;;;;6.11;100.00;96329.97;5010528;28;20215;-75
2021/01/29 04:22:24;;;;;;;7.83;3.23;;;;;;;6.03;100.00;96329.03;5014992;28;20212;-75
2021/01/29 04:24:56;;;;;;;3.07;2.87;;;;;;;6.02;100.00;96327.41;5012855;28;20747;-76
2021/01/29 04:27:26;;;;;;;2.67;2.57;;;;;;;6.13;100.00;96317.44;5015601;28;20204;-75
2021/01/29 04:29:56;;;;;;;4.60;3.33;;;;;;;6.07;100.00;96306.66;5014047;28;20204;-76
2021/01/29 04:32:26;;;;;;;3.33;2.80;;;;;;;6.12;100.00;96307.94;5013242;28;20212;-76
2021/01/29 04:34:55;;;;;;;4.97;2.93;;;;;;;6.01;100.00;96302.09;5017651;28;20224;-76
2021/01/29 04:37:27;;;;;;;3.30;3.00;;;;;;;6.03;100.00;96308.00;5013311;28;20212;-76
2021/01/29 04:39:58;;;;;;;3.60;3.00;;;;;;;6.05;100.00;96299.91;5008925;28;20200;-76
2021/01/29 04:42:41;;;;;;;2.83;2.43;;;;;;;6.08;100.00;96297.75;5005239;28;20342;-75
2021/01/29 04:45:27;;;;;;;2.93;2.43;;;;;;;6.04;100.00;96291.22;5020796;28;20259;-76
2021/01/29 04:47:58;;;;;;;3.37;2.80;;;;;;;6.01;100.00;96281.06;5021433;28;20211;-76
2021/01/29 04:50:32;;;;;;;3.33;2.40;;;;;;;6.06;100.00;96283.16;5022495;28;20213;-79
2021/01/29 04:53:41;;;;;;;3.03;2.47;;;;;;;6.12;100.00;96265.84;5020698;28;20346;-78
2021/01/29 04:56:40;;;;;;;2.50;2.30;;;;;;;6.05;100.00;96271.00;4986234;28;20208;-79
2021/01/29 04:59:30;;;;;;;2.73;2.60;;;;;;;6.13;100.00;96262.22;5019306;28;20208;-79
2021/01/29 05:02:36;;;;;;;2.67;2.47;;;;;;;6.12;100.00;96258.78;5020890;28;20212;-79
2021/01/29 05:05:18;;;;;;;2.43;2.33;;;;;;;6.16;100.00;96243.44;5020441;28;20256;-75
2021/01/29 05:07:50;;;;;;;3.63;2.80;;;;;;;6.16;100.00;96233.75;5022797;28;20201;-76
2021/01/29 05:10:48;;;;;;;3.30;3.10;;;;;;;6.07;100.00;96235.63;5020390;28;20691;-76
2021/01/29 05:13:24;;;;;;;3.20;3.00;;;;;;;6.20;100.00;96231.56;4978865;28;20299;-77
2021/01/29 05:16:20;;;;;;;2.90;2.70;;;;;;;6.11;100.00;96222.13;5022644;28;21228;-77
2021/01/29 05:19:06;;;;;;;3.00;2.80;;;;;;;6.12;100.00;96226.41;5023441;28;20254;-77
2021/01/29 05:22:11;;;;;;;3.10;2.80;;;;;;;6.19;100.00;96206.25;5022409;28;20219;-76
2021/01/29 05:25:08;;;;;;;2.90;2.70;;;;;;;6.12;100.00;96200.09;4926699;28;20243;-77
2021/01/29 05:28:13;;;;;;;3.17;3.00;;;;;;;6.16;100.00;96190.84;5016825;28;20212;-76
2021/01/29 05:30:52;;;;;;;2.97;2.73;;;;;;;6.29;100.00;96188.41;5003592;28;20580;-77
2021/01/29 05:33:45;;;;;;;3.10;2.90;;;;;;;6.18;100.00;96180.97;5021987;28;20260;-77
2021/01/29 05:36:20;;;;;;;3.00;2.80;;;;;;;6.15;100.00;96182.16;5011229;28;20679;-76
2021/01/29 05:39:16;;;;;;;3.60;3.40;;;;;;;6.11;100.00;96170.38;5022542;28;20211;-77
2021/01/29 05:42:21;;;;;;;3.43;3.20;;;;;;;6.11;100.00;96172.16;5022033;28;20204;-78
2021/01/29 05:45:11;;;;;;;3.93;3.73;;;;;;;6.08;100.00;96166.28;4985204;28;20220;-78
2021/01/29 05:48:20;;;;;;;3.83;3.53;;;;;;;6.13;100.00;96162.28;5018134;28;20213;-77
2021/01/29 05:51:29;;;;;;;3.60;3.40;;;;;;;6.10;100.00;96155.59;5018478;28;20996;-78
2021/01/29 05:54:35;;;;;;;4.70;4.40;;;;;;;6.07;100.00;96150.69;4983796;28;20624;-78
2021/01/29 05:57:31;;;;;;;4.50;4.20;;;;;;;6.11;100.00;96135.34;5020936;28;20216;-76
2021/01/29 06:00:09;;;;;;;4.40;4.00;;;;;;;6.05;100.00;96131.63;5020014;28;20224;-76
2021/01/29 06:03:06;;;;;;;4.70;4.30;;;;;;;5.99;100.00;96125.25;5023029;28;20200;-77
2021/01/29 06:05:45;;;;;;;4.40;4.00;;;;;;;6.00;100.00;96124.25;5005359;28;20236;-76
2021/01/29 06:08:37;;;;;;;4.40;4.03;;;;;;;6.03;100.00;96109.94;5020731;28;20205;-78
2021/01/29 06:11:18;;;;;;;4.37;4.07;;;;;;;6.03;100.00;96104.69;5018062;28;20212;-76
2021/01/29 06:14:04;;;;;;;4.23;3.93;;;;;;;6.02;100.00;96079.38;5021463;28;20774;-76
2021/01/29 06:16:53;;;;;;;4.23;3.93;;;;;;;6.06;100.00;96068.34;5021703;28;20204;-77
2021/01/29 06:19:58;;;;;;;4.97;4.67;;;;;;;6.02;100.00;96067.06;5020624;28;20649;-78
2021/01/29 06:22:51;;;;;;;4.20;3.90;;;;;;;5.95;100.00;96066.13;5014032;28;20287;-77
2021/01/29 06:25:30;;;;;;;4.23;3.93;;;;;;;6.09;100.00;96059.28;5019738;28;20231;-76
2021/01/29 06:28:23;;;;;;;4.20;3.90;;;;;;;6.05;100.00;96056.19;5022040;28;20710;-78
2021/01/29 06:31:05;;;;;;;3.80;3.60;;;;;;;6.05;100.00;96053.56;5014694;28;20208;-76
2021/01/29 06:34:04;;;;;;;3.80;3.60;;;;;;;6.04;100.00;96049.28;5019172;28;20224;-77
2021/01/29 06:36:50;;;;;;;4.00;3.70;;;;;;;6.06;100.00;96054.34;5020062;28;20665;-77
2021/01/29 06:39:32;;;;;;;4.97;4.50;;;;;;;6.04;100.00;96043.22;5017648;28;20207;-76
2021/01/29 06:42:18;;;;;;;3.53;3.23;;;;;;;6.03;100.00;96045.03;5019590;28;20200;-76
2021/01/29 06:45:16;;;;;;;4.07;3.77;;;;;;;6.18;100.00;96044.19;5019071;28;20239;-76
2021/01/29 06:48:16;;;;;;;4.00;3.70;;;;;;;6.04;100.00;96038.78;5014354;28;20548;-76
2021/01/29 06:51:17;;;;;;;4.00;3.70;;;;;;;6.07;100.00;96043.66;4983490;28;20204;-75
2021/01/29 06:54:11;;;;;;;3.40;3.20;;;;;;;6.05;100.00;96027.25;5010511;28;20678;-76
2021/01/29 06:56:51;;;;;;;5.20;4.03;;;;;;;6.14;100.00;96035.03;5020656;28;20591;-79
2021/01/29 06:59:43;;;;;;;3.17;2.97;;;;;;;6.15;100.00;96037.50;5018679;28;20211;-78
2021/01/29 07:02:42;;;;;;;4.37;4.07;;;;;;;6.12;100.00;96023.88;5012707;28;20201;-73
2021/01/29 07:05:38;;;;;;;5.80;5.00;;;;;;;6.10;100.00;96012.75;5019535;28;20604;-76
2021/01/29 07:08:16;;;;;;;6.50;4.70;;;;;;;6.23;100.00;96018.13;5023914;28;20496;-78
2021/01/29 07:10:50;;;;;;;3.30;3.00;;;;;;;6.20;100.00;96010.63;5024741;28;20212;-75
2021/01/29 07:13:31;;;;;;;3.27;3.07;;;;;;;6.29;100.00;96009.53;5023522;28;20232;-77
2021/01/29 07:16:12;;;;;;;3.30;3.10;;;;;;;6.27;100.00;95993.13;5013963;28;20204;-77
2021/01/29 07:18:53;;;;;;;2.43;2.33;;;;;;;6.34;100.00;95999.25;5019746;28;20196;-77
2021/01/29 07:21:36;;;;;;;2.77;2.67;;;;;;;6.29;100.00;95993.75;5021314;28;20696;-75
2021/01/29 07:24:29;;;;;;;2.70;2.50;;;;;;;6.22;100.00;95991.03;5018250;28;20263;-73
2021/01/29 07:27:03;;;;;;;3.63;3.07;;;;;;;6.16;100.00;95981.25;5019116;28;20201;-75
2021/01/29 07:29:41;;;;;;;3.00;2.80;;;;;;;6.15;100.00;95973.53;5018950;28;20677;-75
2021/01/29 07:32:15;;;;;;;2.87;2.77;;;;;;;6.08;100.00;95976.13;5016468;28;20227;-74
2021/01/29 07:34:54;;;;;;;2.70;2.50;;;;;;;6.10;100.00;95982.00;5020192;28;20231;-74
2021/01/29 07:37:49;;;;;;;2.50;2.40;;;;;;;6.14;100.00;95966.66;5022697;28;20542;-73
2021/01/29 07:40:41;;;;;;;3.30;3.10;;;;;;;6.12;100.00;95981.81;4970605;28;20232;-76
2021/01/29 07:43:15;;;;;;;6.07;3.27;;;;;;;6.18;100.00;95967.91;5025130;28;20223;-74
2021/01/29 07:46:13;;;;;;;2.40;2.30;;;;;;;6.18;100.00;95965.28;5024163;28;20207;-73
2021/01/29 07:49:05;;;;;;;2.70;2.50;;;;;;;6.39;100.00;95967.13;5022384;28;20515;-76
2021/01/29 07:51:36;;;;;;;2.10;2.00;;;;;;;6.36;100.00;95954.34;5021526;28;20235;-73
2021/01/29 07:54:24;;;;;;;2.03;1.93;;;;;;;6.34;100.00;95951.91;5019908;28;20671;-74
2021/01/29 07:57:00;;;;;;;2.07;1.87;;;;;;;6.32;100.00;95964.44;5020396;28;20219;-74
2021/01/29 07:59:41;;;;;;;2.57;2.37;;;;;;;6.34;100.00;95954.53;5020035;28;20200;-75
2021/01/29 08:02:15;;;;;;;2.67;1.77;;;;;;;6.46;100.00;95949.59;5024094;28;20211;-76
2021/01/29 08:04:53;;;;;;;2.00;1.90;;;;;;;6.49;100.00;95951.03;5022024;28;20389;-73
2021/01/29 08:07:24;;;;;;;1.60;1.60;;;;;;;6.38;100.00;95947.06;5023209;28;20220;-74
2021/01/29 08:09:54;;;;;;;2.77;2.07;;;;;;;6.35;100.00;95952.72;5021707;28;20208;-73
2021/01/29 08:12:22;;;;;;;1.20;1.20;;;;;;;6.45;100.00;95958.50;5023407;28;20231;-75
2021/01/29 08:15:23;;;;;;;1.67;1.67;;;;;;;6.34;100.00;95946.66;5020155;28;20224;-73
2021/01/29 08:18:03;;;;;;;6.13;4.07;;;;;;;6.34;100.00;95944.03;5018261;28;20497;-74
2021/01/29 08:20:59;;;;;;;1.90;1.80;;;;;;;6.39;100.00;95955.78;5018155;28;20204;-75
2021/01/29 08:23:32;;;;;;;1.87;1.00;;;;;;;6.40;100.00;95952.16;5020242;28;20220;-73
2021/01/29 08:26:35;;;;;;;1.63;1.53;;;;;;;6.47;100.00;95948.59;5023119;28;20313;-74
2021/01/29 08:29:43;;;;;;;8.47;5.00;;;;;;;6.54;100.00;95943.38;5019992;28;20703;-72
2021/01/29 08:32:33;;;;;;;0.70;0.70;;;;;;;6.66;100.00;95939.25;4995201;28;20274;-73
2021/01/29 08:35:23;;;;;;;6.13;5.00;;;;;;;6.78;100.00;95929.00;5017788;28;20232;-73
2021/01/29 08:37:56;;;;;;;12.50;6.73;;;;;;;6.83;100.00;95943.44;5020589;28;20200;-73
2021/01/29 08:40:27;;;;;;;9.17;5.83;;;;;;;6.87;100.00;95958.63;5023900;28;20208;-72
2021/01/29 08:43:26;;;;;;;2.63;1.20;;;;;;;6.97;100.00;95946.94;5014273;28;20231;-75
2021/01/29 08:46:02;;;;;;;23.20;13.80;;;;;;;6.99;100.00;95961.56;5008996;28;20204;-74
2021/01/29 08:48:57;;;;;;;13.20;8.23;;;;;;;7.03;100.00;95952.28;5007225;28;20569;-74
2021/01/29 08:51:27;;;;;;;6.73;3.67;;;;;;;7.08;100.00;95954.34;5009712;28;20208;-72
2021/01/29 08:54:48;;;;;;;1.57;1.00;;;;;;;7.05;100.00;95968.69;5002843;28;20286;-73
2021/01/29 08:57:21;;;;;;;5.20;4.50;;;;;;;7.05;100.00;95976.59;4941780;28;20212;-76
2021/01/29 08:59:48;;;;;;;9.33;8.53;;;;;;;7.05;100.00;95970.53;5006277;28;20288;-77
2021/01/29 09:02:37;;;;;;;6.60;6.10;;;;;;;7.05;100.00;95989.75;5010611;28;20291;-76
2021/01/29 09:05:08;;;;;;;2.13;2.03;;;;;;;7.04;100.00;95979.44;5005317;28;20239;-78
2021/01/29 09:07:39;;;;;;;2.57;2.43;;;;;;;7.11;100.00;95990.84;5012291;28;20206;-75
2021/01/29 09:10:11;;;;;;;1.43;1.33;;;;;;;7.12;100.00;95989.81;5005889;28;20585;-76
2021/01/29 09:12:40;;;;;;;2.17;1.97;;;;;;;7.12;100.00;95992.47;5006632;28;20229;-76
2021/01/29 09:15:14;;;;;;;4.87;4.37;;;;;;;7.15;100.00;96018.41;5004152;28;20562;-74
2021/01/29 09:17:46;;;;;;;1.33;1.33;;;;;;;7.19;100.00;96017.03;5005435;28;20215;-76
2021/01/29 09:20:25;;;;;;;1.43;1.30;;;;;;;7.13;100.00;96052.03;5003255;28;20204;-77
2021/01/29 09:22:56;;;;;;;1.67;1.57;;;;;;;7.15;100.00;96022.84;5001691;28;20228;-75
2021/01/29 09:25:27;;;;;;;1.30;1.20;;;;;;;7.21;100.00;96046.63;5009790;28;20219;-76
2021/01/29 09:28:05;;;;;;;0.80;0.80;;;;;;;7.13;100.00;96019.59;5011150;28;20665;-76
2021/01/29 09:30:34;;;;;;;1.73;1.63;;;;;;;7.14;100.00;96032.59;5007864;28;20212;-75
2021/01/29 09:33:10;;;;;;;10.43;8.17;;;;;;;7.12;100.00;96066.22;5012614;28;20228;-74
2021/01/29 09:35:48;;;;;;;3.20;3.00;;;;;;;7.16;100.00;96053.47;5010665;28;20208;-77
2021/01/29 09:38:18;;;;;;;2.40;2.20;;;;;;;7.14;100.00;96051.03;5010789;28;20212;-75
2021/01/29 09:40:52;;;;;;;3.77;3.47;;;;;;;7.23;100.00;96051.72;5010283;28;20700;-75
2021/01/29 09:43:27;;;;;;;1.87;1.27;;;;;;;7.31;100.00;96046.31;5014265;28;20243;-75
2021/01/29 09:45:55;;;;;;;1.37;1.27;;;;;;;7.38;100.00;96048.97;5009854;28;20266;-77
2021/01/29 09:48:26;;;;;;;5.70;5.20;;;;;;;7.37;100.00;96057.88;5008251;28;20296;-74
2021/01/29 09:51:05;;;;;;;2.97;2.77;;;;;;;7.53;100.00;96062.06;5012979;28;20286;-72
2021/01/29 09:53:37;;;;;;;1.33;1.23;;;;;;;7.58;100.00;96058.84;5005112;28;20562;-76
2021/01/29 09:56:09;;;;;;;0.60;0.60;;;;;;;7.67;100.00;96065.59;5008637;28;20204;-74
2021/01/29 09:59:01;;;;;;;1.63;0.63;;;;;;;7.69;100.00;96082.03;5008963;28;20205;-76
2021/01/29 10:01:36;;;;;;;1.27;0.83;;;;;;;7.72;100.00;96083.50;5006237;28;20213;-76
2021/01/29 10:04:06;;;;;;;1.17;1.03;;;;;;;7.79;100.00;96084.34;5007956;28;20224;-76
2021/01/29 10:06:36;;;;;;;0.67;0.67;;;;;;;7.73;100.00;96067.47;5006724;28;20300;-76
2021/01/29 10:09:11;;;;;;;0.73;0.73;;;;;;;7.77;100.00;96079.28;5013148;28;20652;-75
2021/01/29 10:11:43;;;;;;;0.60;0.60;;;;;;;7.71;100.00;96087.13;5008607;28;20208;-77
2021/01/29 10:14:14;;;;;;;0.70;0.70;;;;;;;7.58;100.00;96091.31;5004243;28;20229;-76
2021/01/29 10:16:47;;;;;;;0.80;0.80;;;;;;;7.56;100.00;96088.03;5007541;28;20822;-77
2021/01/29 10:19:26;;;;;;;0.77;0.77;;;;;;;7.49;100.00;96082.72;5007292;28;20247;-76
2021/01/29 10:22:23;;;;;;;0.90;0.90;;;;;;;7.41;100.00;96090.78;5007564;28;20577;-77
2021/01/29 10:25:00;;;;;;;1.10;0.80;;;;;;;7.36;100.00;96101.03;5009737;28;20295;-76
2021/01/29 10:27:35;;;;;;;1.53;0.60;;;;;;;7.38;100.00;96097.22;5005960;28;20255;-76
2021/01/29 10:30:06;;;;;;;0.70;0.70;;;;;;;7.35;100.00;96104.69;5011140;28;20459;-75
2021/01/29 10:32:36;;;;;;;0.80;0.80;;;;;;;7.43;100.00;96112.50;5008186;28;20231;-75
2021/01/29 10:35:10;;;;;;;1.00;0.80;;;;;;;7.43;100.00;96109.84;5009415;28;20230;-75
2021/01/29 10:37:43;;;;;;;1.90;0.97;;;;;;;7.43;100.00;96106.38;5004714;28;20692;-76
2021/01/29 10:40:27;;;;;;;1.00;0.70;;;;;;;7.41;100.00;96106.59;5007904;28;20209;-75
2021/01/29 10:43:01;;;;;;;1.87;0.90;;;;;;;7.48;100.00;96117.16;5010692;28;20239;-76
2021/01/29 10:45:36;;;;;;;0.90;0.90;;;;;;;7.60;100.00;96117.47;5006294;28;20232;-76
2021/01/29 10:48:10;;;;;;;0.67;0.67;;;;;;;7.71;100.00;96116.13;5005574;28;20204;-76
2021/01/29 10:50:46;;;;;;;0.57;0.57;;;;;;;7.65;100.00;96136.16;5004123;28;20197;-75
2021/01/29 10:53:17;;;;;;;0.70;0.70;;;;;;;7.37;100.00;96143.03;5009904;28;21243;-75
2021/01/29 10:55:55;;;;;;;0.60;0.60;;;;;;;7.06;100.00;96146.78;5008696;28;20640;-76
2021/01/29 10:58:46;;;;;;;0.80;0.80;;;;;;;6.92;100.00;96145.03;5006194;28;20216;-74
2021/01/29 11:01:28;;;;;;;0.70;0.70;;;;;;;6.83;100.00;96144.31;5003422;28;20310;-75
2021/01/29 11:04:03;;;;;;;0.70;0.70;;;;;;;6.75;100.00;96162.88;5009516;28;20232;-75
2021/01/29 11:06:42;;;;;;;1.60;1.10;;;;;;;6.70;100.00;96142.34;5001842;28;20784;-75
2021/01/29 11:09:18;;;;;;;1.03;0.80;;;;;;;6.66;100.00;96149.81;5009984;28;20227;-75
2021/01/29 11:11:49;;;;;;;0.97;0.93;;;;;;;6.79;100.00;96151.75;5007528;28;20215;-75
2021/01/29 11:14:22;;;;;;;1.13;1.00;;;;;;;6.84;100.00;96151.22;5006437;28;20651;-75
2021/01/29 11:16:55;;;;;;;1.17;1.17;;;;;;;6.88;100.00;96164.84;5007447;28;20215;-76
2021/01/29 11:19:25;;;;;;;3.87;1.20;;;;;;;6.92;100.00;96168.75;5010473;28;20208;-75
2021/01/29 11:22:14;;;;;;;2.23;1.40;;;;;;;7.04;100.00;96185.69;5005685;28;20260;-76
2021/01/29 11:24:57;;;;;;;2.70;1.20;;;;;;;7.08;100.00;96167.69;5006349;28;20612;-75
2021/01/29 11:27:30;;;;;;;3.20;1.10;;;;;;;7.10;100.00;96176.22;5009425;28;20208;-76
2021/01/29 11:30:03;;;;;;;1.47;1.27;;;;;;;7.26;100.00;96161.16;5008156;28;20226;-76
2021/01/29 11:32:33;;;;;;;1.20;1.10;;;;;;;7.34;100.00;96164.50;5000104;28;20691;-79
2021/01/29 11:35:11;;;;;;;1.13;1.13;;;;;;;7.39;100.00;96172.66;5007226;28;20900;-75
2021/01/29 11:37:45;;;;;;;1.47;1.30;;;;;;;7.46;97.66;96178.00;5009889;28;20279;-74
2021/01/29 11:40:17;;;;;;;1.87;1.40;;;;;;;7.52;96.88;96165.84;5007128;28;20295;-75
2021/01/29 11:42:52;;;;;;;5.67;1.53;;;;;;;7.56;95.20;96169.75;5009700;28;20323;-75
2021/01/29 11:45:21;;;;;;;3.50;1.50;;;;;;;7.70;89.44;96178.59;5008604;28;20612;-75
2021/01/29 11:47:58;;;;;;;4.17;1.77;;;;;;;7.77;89.82;96182.13;5008454;28;20212;-76
2021/01/29 11:50:32;;;;;;;4.90;1.83;;;;;;;7.87;89.04;96186.22;4999587;28;20378;-76
2021/01/29 11:53:02;;;;;;;2.63;1.27;;;;;;;7.85;87.76;96188.25;5005024;28;20620;-77
2021/01/29 11:55:33;;;;;;;4.53;1.87;;;;;;;7.92;87.56;96189.09;5008781;28;20685;-76
2021/01/29 11:58:09;;;;;;;2.30;1.57;;;;;;;8.00;87.22;96194.22;5005094;28;20587;-77
2021/01/29 12:00:38;;;;;;;6.33;1.57;;;;;;;8.15;86.89;96195.97;5007976;28;20209;-76
2021/01/29 12:03:16;;;;;;;2.83;1.40;;;;;;;8.21;85.51;96185.44;5005202;28;20292;-76
2021/01/29 12:05:48;;;;;;;1.90;1.40;;;;;;;8.19;83.39;96207.78;5011520;28;21091;-78
2021/01/29 12:08:25;;;;;;;4.30;1.73;;;;;;;8.25;83.62;96220.19;5004682;28;20212;-78
2021/01/29 12:11:04;;;;;;;1.73;1.10;;;;;;;8.24;84.12;96190.34;5003152;28;20605;-78
2021/01/29 12:13:38;;;;;;;3.47;1.43;;;;;;;8.17;83.93;96204.50;5000675;28;20229;-78
2021/01/29 12:16:11;;;;;;;1.20;1.10;;;;;;;8.24;84.66;96192.16;5009561;28;20208;-76
2021/01/29 12:18:39;;;;;;;3.27;1.80;;;;;;;8.19;86.00;96203.28;5006345;28;20220;-76
2021/01/29 12:21:09;;;;;;;2.57;1.43;;;;;;;8.02;87.77;96194.06;5005053;28;20217;-76
2021/01/29 12:23:42;;;;;;;1.77;1.30;;;;;;;7.94;88.12;96206.34;5009162;28;20318;-75